NO-0039 weather

Huseby Airstrip
Fredrikstad, Østfold, Norway

Public forecast

Using degrees Celsius for public forecast. Weather courtesy of forecast.io.

METAR (pilot weather report)

Closest report is Moss Airport, Rygge, 6.8 nm (12.5 km) N. Retrieved 2019/05/20 17:20 UTC (35 minutes ago):

ENRY 201720Z 35008KT 9999 SCT012 BKN025 15/13 Q1010

TAF (pilot weather forecast)

Forecast is more than 6 hours old.

Closest forecast is Moss Airport, Rygge, 6.8 nm (12.5 km) N. Retrieved 2019/05/20 06:00 UTC (12 hours ago):

TAF TAF ENRY 200500Z 2006/2106 02008KT 9999 -RA FEW008 BKN030 TEMPO 2006/2014 4000 SHRA BKN008 SCT020CB TEMPO 2014/2106 2000 -DZRA BR BKN004